首页
METAR-TAF:

METAR-TAF

机场 :

西班牙港, 特立尼达岛, 千里達及托巴哥

皮阿尔科国际机场

纬度: 10-37N, 经度: 061-21W, 海拔: 12米

当前天气观测

该预报发布于37分钟前的01:00 UTC
静风
温度 23°C
湿度 89%
气压 1014 hPa
能见度10公里或以上
少量云层高于1600英尺
散云层高于3800英尺
小雨

METAR: TTPP 250100Z 00000KT 9999 -RA FEW016 SCT038 23/21 Q1014 NOSIG

时间: 21:37 (01:37 UTC)

预报

该预报发布于3小时和37分钟前的22:00 UTC
预报有效从25日的 00点(UTC)到 25日的 24点(UTC)
风速5节,风向
能见度10公里或以上
散云层高于1600英尺
散云层高于3600英尺
短暂存在
从 25日的 00点(UTC)到 25日的 04点(UTC)
能見度: 6000
多云层高于3400英尺
阵雨
短暂存在
从 25日的 06点(UTC)到 25日的 18点(UTC)
风速15节,风向,有时为28节阵风
能見度: 4000
多云层高于1400英尺
多云层高于3400英尺
阵雨
成为
从 25日的 12点(UTC)到 25日的 14点(UTC)
风速15节,风向
散云层高于1800英尺
多云层高于3500英尺

TAF: TTPP 242200Z 2500/2524 10005KT 9999 SCT016 SCT036 TEMPO 2500/2504 6000 SHRA BKN034 TEMPO 2506/2518 10015G28KT 4000 SHRA BKN014 BKN034 BECMG 2512/2514 10015KT SCT018 BKN035

超过4000个机场的气象观测和天气预报(METAR&TAF报告)。

可查询的气象台以黄色和红色小点在地图上表示。

将鼠标移到小点上方,可查看气象台名称。

然后点击查看天气观测和预报。

如需切换地图:点击带黑十字的绿色按钮放大地图;点击带横线的绿色按钮缩小地图;或者点击绿色箭头查看邻近地区的地图。


METAR-TAF: